Idlewood, Illinois
Current Conditions -  °F | °C
As of 8:35 AM on Monday 26 Jan 2015 (Local Time) from KMVN Reporting Station
Broken Clouds Broken Clouds  
Wind Chill: 19°   Ceiling: 1600
Heat Index: 27°   Visibility: 10mi
Dew Point: 18°   Wind: 7mph
Humidity: 69%   Direction: 290°WNW
Pressure: 30.05"   Gusts: NA
Location:  38.3147°N, 88.9065°W
Report Text: KMVN 261435Z AUTO 29006KT 10SM BKN016 M03/M08 A3005 RMK AO1
Loading
Personal Weather Stations






























Interactive Weather Map New forecast layout! Learn more

10-Day Weather Forecast

Advertisements
Track Severe Weather on mobile